Time;durP1;ratioP1;P1;durP2;ratioP2;P2;SDS_P1;SDS_P2;PMS_P1;PMS_P2;Temp;Humidity;BMP_temperature;BMP_pressure;BME280_temperature;BME280_humidity;BME280_pressure;Samples;Min_cycle;Max_cycle;Signal;HPM_P1;HPM_P2
2022/06/21 00:00:26;;;;;;;8.90;5.37;;;21.00;99.90;;;;;;5051746;28;20463;-66
2022/06/21 00:02:56;;;;;;;7.83;5.73;;;21.10;99.90;;;;;;5052043;28;20527;-66
2022/06/21 00:05:28;;;;;;;6.47;5.13;;;21.10;99.90;;;;;;5051904;28;20497;-66
2022/06/21 00:07:57;;;;;;;6.83;5.40;;;20.90;99.90;;;;;;5052120;28;20523;-66
2022/06/21 00:10:24;;;;;;;11.03;5.80;;;20.90;99.90;;;;;;5051828;28;20488;-66
2022/06/21 00:12:51;;;;;;;7.80;6.20;;;20.90;99.90;;;;;;5052124;28;20461;-66
2022/06/21 00:15:18;;;;;;;11.10;6.27;;;20.90;99.90;;;;;;5051984;28;20472;-66
2022/06/21 00:17:49;;;;;;;7.70;6.10;;;20.80;99.90;;;;;;5051991;28;20481;-66
2022/06/21 00:20:20;;;;;;;8.20;6.20;;;20.80;99.90;;;;;;5051284;28;20461;-66
2022/06/21 00:22:48;;;;;;;8.37;6.00;;;20.70;99.90;;;;;;5051851;28;20469;-67
2022/06/21 00:25:19;;;;;;;8.23;6.30;;;20.60;99.90;;;;;;5051634;28;20981;-67
2022/06/21 00:27:46;;;;;;;8.50;6.20;;;20.50;99.90;;;;;;5051614;28;20477;-67
2022/06/21 00:30:16;;;;;;;9.20;6.30;;;20.40;99.90;;;;;;5050930;28;20536;-67
2022/06/21 00:32:44;;;;;;;7.90;6.90;;;20.50;99.90;;;;;;5051784;28;20454;-67
2022/06/21 00:35:16;;;;;;;8.80;6.30;;;20.40;99.90;;;;;;5051709;28;20445;-67
2022/06/21 00:37:43;;;;;;;13.07;5.90;;;20.20;99.90;;;;;;5051632;28;20474;-67
2022/06/21 00:40:20;;;;;;;6.73;5.50;;;20.30;99.90;;;;;;5051494;28;20465;-67
2022/06/21 00:42:51;;;;;;;8.90;6.50;;;20.20;99.90;;;;;;5051670;28;20997;-67
2022/06/21 00:45:28;;;;;;;8.10;6.53;;;20.10;99.90;;;;;;5051469;28;20489;-66
2022/06/21 00:47:59;;;;;;;9.60;6.63;;;20.10;99.90;;;;;;5051414;28;20527;-67
2022/06/21 00:50:31;;;;;;;10.70;6.37;;;20.00;99.90;;;;;;5051477;28;20458;-67
2022/06/21 00:53:03;;;;;;;7.63;6.00;;;20.00;99.90;;;;;;5050735;28;20494;-66
2022/06/21 00:55:44;;;;;;;8.00;6.90;;;20.10;99.90;;;;;;5051298;28;20967;-66
2022/06/21 00:58:14;;;;;;;8.03;5.63;;;20.20;99.90;;;;;;5050980;28;20485;-65
2022/06/21 01:00:57;;;;;;;8.40;6.40;;;20.30;99.90;;;;;;5051058;28;20465;-66
2022/06/21 01:03:28;;;;;;;12.80;6.50;;;20.40;99.90;;;;;;5050970;28;20469;-66
2022/06/21 01:06:01;;;;;;;8.63;6.33;;;20.40;99.90;;;;;;5050713;28;20490;-65
2022/06/21 01:08:33;;;;;;;7.80;6.57;;;20.40;99.90;;;;;;5051063;28;20516;-66
2022/06/21 01:11:05;;;;;;;7.43;5.33;;;20.50;99.90;;;;;;5050689;28;20942;-66
2022/06/21 01:13:36;;;;;;;9.33;6.40;;;20.40;99.90;;;;;;5050778;28;20545;-66
2022/06/21 01:16:04;;;;;;;11.03;5.80;;;20.40;99.90;;;;;;5050897;28;20449;-66
2022/06/21 01:18:32;;;;;;;6.80;5.70;;;20.30;99.90;;;;;;5050931;28;20874;-66
2022/06/21 01:21:02;;;;;;;7.80;6.77;;;20.20;99.90;;;;;;5050940;28;20528;-66
2022/06/21 01:23:40;;;;;;;8.40;6.20;;;20.20;99.90;;;;;;5050830;28;20454;-67
2022/06/21 01:26:29;;;;;;;7.40;6.17;;;20.30;99.90;;;;;;5050711;28;20493;-67
2022/06/21 01:28:57;;;;;;;7.63;6.20;;;20.20;99.90;;;;;;5050608;28;20453;-68
2022/06/21 01:31:24;;;;;;;7.13;5.87;;;20.20;99.90;;;;;;5050622;28;20450;-67
2022/06/21 01:33:51;;;;;;;8.67;6.03;;;20.30;99.90;;;;;;5050612;28;20462;-67
2022/06/21 01:36:22;;;;;;;7.07;5.73;;;20.30;99.90;;;;;;5050458;28;20458;-66
2022/06/21 01:38:54;;;;;;;8.53;5.83;;;20.20;99.90;;;;;;5050757;28;20792;-67
2022/06/21 01:41:25;;;;;;;7.93;6.33;;;20.10;99.90;;;;;;5050383;28;20453;-66
2022/06/21 01:43:58;;;;;;;6.93;6.00;;;20.10;99.90;;;;;;5050688;28;20938;-66
2022/06/21 01:46:31;;;;;;;7.03;5.93;;;20.00;99.90;;;;;;5050238;28;20567;-67
2022/06/21 01:49:02;;;;;;;8.47;6.70;;;20.00;99.90;;;;;;5050091;28;20507;-66
2022/06/21 01:51:33;;;;;;;7.70;6.23;;;20.00;99.90;;;;;;5050480;28;21241;-66
2022/06/21 01:54:02;;;;;;;8.73;6.63;;;20.00;99.90;;;;;;5049487;28;21041;-66
2022/06/21 01:56:32;;;;;;;7.50;6.27;;;20.00;99.90;;;;;;5050225;28;20528;-66
2022/06/21 01:59:05;;;;;;;6.83;5.50;;;20.00;99.90;;;;;;5050113;28;20488;-67
2022/06/21 02:01:38;;;;;;;7.10;5.97;;;20.10;99.90;;;;;;5049738;28;20481;-66
2022/06/21 02:04:09;;;;;;;7.60;5.57;;;20.10;99.90;;;;;;5049897;28;20461;-65
2022/06/21 02:06:40;;;;;;;6.10;5.10;;;20.00;99.90;;;;;;5049826;28;20489;-66
2022/06/21 02:09:13;;;;;;;7.60;5.50;;;20.00;99.90;;;;;;5050043;28;20461;-67
2022/06/21 02:11:50;;;;;;;8.83;5.23;;;20.00;99.90;;;;;;5050118;28;20993;-66
2022/06/21 02:14:29;;;;;;;5.70;4.50;;;19.80;99.90;;;;;;5049902;28;20453;-66
2022/06/21 02:17:04;;;;;;;8.43;5.30;;;19.90;99.90;;;;;;5049861;28;20519;-65
2022/06/21 02:19:36;;;;;;;8.50;5.50;;;20.00;99.90;;;;;;5049814;28;20551;-66
2022/06/21 02:22:03;;;;;;;6.43;5.20;;;20.10;99.90;;;;;;5049770;28;20454;-66
2022/06/21 02:24:31;;;;;;;6.10;5.00;;;20.10;99.90;;;;;;5049694;28;20454;-66
2022/06/21 02:27:00;;;;;;;7.37;5.87;;;20.00;99.90;;;;;;5049584;28;20527;-66
2022/06/21 02:29:30;;;;;;;9.80;5.73;;;20.00;99.90;;;;;;5049747;28;20519;-66
2022/06/21 02:31:58;;;;;;;7.40;5.93;;;19.80;99.90;;;;;;5049783;28;20456;-67
2022/06/21 02:34:32;;;;;;;8.63;5.97;;;19.50;99.90;;;;;;5049417;28;20449;-66
2022/06/21 02:37:02;;;;;;;9.17;6.77;;;19.30;99.90;;;;;;5049217;28;21020;-66
2022/06/21 02:39:32;;;;;;;10.73;6.80;;;19.10;99.90;;;;;;5049518;28;20536;-65
2022/06/21 02:42:03;;;;;;;9.20;5.70;;;19.00;99.90;;;;;;5049720;28;20855;-66
2022/06/21 02:44:37;;;;;;;7.00;5.67;;;18.80;99.90;;;;;;5049341;28;20527;-67
2022/06/21 02:47:10;;;;;;;8.30;6.40;;;18.80;99.90;;;;;;5049133;28;20873;-67
2022/06/21 02:49:41;;;;;;;9.13;6.10;;;18.70;99.90;;;;;;5049712;28;20528;-66
2022/06/21 02:52:12;;;;;;;9.80;6.47;;;18.70;99.90;;;;;;5049724;28;20847;-67
2022/06/21 02:54:45;;;;;;;8.77;6.47;;;18.80;99.90;;;;;;5053587;28;20886;-67
2022/06/21 02:57:17;;;;;;;9.63;7.67;;;18.70;99.90;;;;;;5053411;28;20542;-67
2022/06/21 02:59:48;;;;;;;9.73;6.77;;;18.50;99.90;;;;;;5053501;28;20454;-66
2022/06/21 03:02:18;;;;;;;7.30;6.47;;;18.50;99.90;;;;;;5053485;28;20454;-66
2022/06/21 03:04:48;;;;;;;7.90;6.47;;;18.60;99.90;;;;;;5053344;28;20446;-66
2022/06/21 03:07:21;;;;;;;11.17;6.50;;;18.80;99.90;;;;;;5053345;28;20469;-66
2022/06/21 03:09:48;;;;;;;7.80;5.90;;;18.90;99.90;;;;;;5052953;28;20484;-66
2022/06/21 03:12:19;;;;;;;7.77;6.27;;;18.90;99.90;;;;;;5052946;28;20454;-66
2022/06/21 03:14:50;;;;;;;7.63;6.83;;;19.10;99.90;;;;;;5053005;28;20983;-66
2022/06/21 03:17:19;;;;;;;10.50;8.03;;;19.10;99.90;;;;;;5053071;28;20477;-66
2022/06/21 03:19:51;;;;;;;8.00;6.20;;;19.10;99.90;;;;;;5053283;28;20519;-65
2022/06/21 03:22:20;;;;;;;7.27;5.83;;;19.10;99.90;;;;;;5053206;28;20892;-66
2022/06/21 03:24:50;;;;;;;8.43;6.20;;;19.10;99.90;;;;;;5052854;28;21017;-66
2022/06/21 03:27:24;;;;;;;7.30;6.10;;;19.00;99.90;;;;;;5052966;28;20496;-66
2022/06/21 03:29:53;;;;;;;10.50;5.67;;;19.00;99.90;;;;;;5052975;28;20511;-66
2022/06/21 03:32:20;;;;;;;10.67;6.20;;;19.00;99.90;;;;;;5052943;28;20523;-66
2022/06/21 03:34:50;;;;;;;7.87;6.30;;;18.90;99.90;;;;;;5052711;28;20462;-66
2022/06/21 03:37:17;;;;;;;7.27;5.97;;;18.90;99.90;;;;;;5053200;28;20524;-66
2022/06/21 03:42:36;;;;;;;12.63;6.53;;;19.00;99.90;;;;;;5052853;28;20437;-65
2022/06/21 03:45:11;;;;;;;7.60;6.10;;;19.10;99.90;;;;;;5052316;28;20453;-67
2022/06/21 03:47:43;;;;;;;9.80;6.50;;;19.20;99.90;;;;;;5052592;28;20523;-66
2022/06/21 03:50:15;;;;;;;10.40;6.50;;;19.20;99.90;;;;;;5052507;28;20485;-67
2022/06/21 03:52:46;;;;;;;7.70;6.23;;;19.20;99.90;;;;;;5052311;28;20533;-68
2022/06/21 03:55:24;;;;;;;8.17;6.80;;;19.30;99.90;;;;;;5052093;28;20484;-67
2022/06/21 03:57:58;;;;;;;8.57;7.37;;;19.40;99.90;;;;;;5052324;28;21329;-69
2022/06/21 04:00:30;;;;;;;11.33;6.53;;;19.60;99.90;;;;;;5052129;28;20902;-67
2022/06/21 04:03:05;;;;;;;9.20;7.20;;;19.80;99.90;;;;;;5052394;28;20461;-68
2022/06/21 04:05:39;;;;;;;9.57;7.20;;;19.90;99.90;;;;;;5052394;28;20495;-66
2022/06/21 04:08:12;;;;;;;7.10;5.90;;;20.00;99.90;;;;;;5051953;28;20778;-66
2022/06/21 04:10:48;;;;;;;9.63;6.80;;;20.10;99.90;;;;;;5051987;28;20453;-67
2022/06/21 04:13:21;;;;;;;9.90;6.87;;;20.20;99.90;;;;;;5052420;28;20453;-67
2022/06/21 04:15:55;;;;;;;9.20;7.50;;;20.40;99.90;;;;;;5052528;28;20804;-67
2022/06/21 04:18:27;;;;;;;10.67;7.40;;;20.50;99.90;;;;;;5051836;28;20473;-66
2022/06/21 04:21:00;;;;;;;8.97;7.13;;;20.50;99.90;;;;;;5051898;28;20512;-65
2022/06/21 04:23:32;;;;;;;8.60;6.90;;;20.60;99.90;;;;;;5051867;28;20458;-67
2022/06/21 04:26:04;;;;;;;9.07;7.30;;;20.60;99.90;;;;;;5051762;28;20494;-70
2022/06/21 04:28:38;;;;;;;10.00;7.83;;;20.60;99.90;;;;;;5051614;28;20481;-71
2022/06/21 04:31:13;;;;;;;9.63;7.80;;;20.60;99.90;;;;;;5051402;28;20461;-70
2022/06/21 04:33:45;;;;;;;11.80;8.27;;;20.60;99.90;;;;;;5051378;28;20549;-71
2022/06/21 04:36:17;;;;;;;13.23;7.93;;;20.70;99.90;;;;;;5051587;28;20462;-69
2022/06/21 04:38:51;;;;;;;9.90;8.60;;;20.80;99.90;;;;;;5051309;28;20462;-66
2022/06/21 04:41:23;;;;;;;9.50;8.30;;;20.80;99.90;;;;;;5051545;28;20465;-71
2022/06/21 04:43:57;;;;;;;10.60;8.70;;;20.80;99.90;;;;;;5051309;28;20453;-73
2022/06/21 04:46:31;;;;;;;8.97;8.03;;;20.80;99.90;;;;;;5051436;28;20512;-73
2022/06/21 04:49:05;;;;;;;11.30;9.00;;;20.90;99.90;;;;;;5049616;28;20461;-67
2022/06/21 04:51:38;;;;;;;9.33;7.50;;;20.90;99.90;;;;;;5050534;28;20469;-74
2022/06/21 04:54:07;;;;;;;9.97;7.93;;;21.00;99.90;;;;;;5050449;28;20493;-73
2022/06/21 04:56:48;;;;;;;9.53;7.30;;;21.10;99.90;;;;;;5050055;28;20473;-73
2022/06/21 04:59:20;;;;;;;9.00;7.10;;;21.30;99.90;;;;;;5051146;28;21003;-66
2022/06/21 05:01:49;;;;;;;11.07;9.03;;;21.40;99.90;;;;;;5050994;28;20504;-66
2022/06/21 05:04:21;;;;;;;11.53;8.00;;;21.40;99.90;;;;;;5050679;28;20596;-66
2022/06/21 05:06:49;;;;;;;11.33;9.17;;;21.50;99.90;;;;;;5050834;28;20539;-64
2022/06/21 05:09:19;;;;;;;13.60;9.93;;;21.70;99.90;;;;;;5050884;28;20445;-67
2022/06/21 05:11:47;;;;;;;11.03;9.80;;;21.70;99.90;;;;;;5051013;28;20446;-67
2022/06/21 05:14:20;;;;;;;10.37;9.27;;;21.70;99.90;;;;;;5050891;28;20454;-68
2022/06/21 05:16:50;;;;;;;9.87;8.87;;;21.90;99.90;;;;;;5049980;28;21028;-67
2022/06/21 05:19:22;;;;;;;13.30;9.30;;;22.00;99.90;;;;;;5050610;28;20519;-66
2022/06/21 05:21:53;;;;;;;12.80;10.33;;;22.00;99.90;;;;;;5050769;28;20825;-66
2022/06/21 05:24:20;;;;;;;11.83;10.10;;;22.00;99.90;;;;;;5050280;28;20454;-67
2022/06/21 05:26:55;;;;;;;12.00;10.43;;;22.00;99.90;;;;;;5050497;28;20999;-67
2022/06/21 05:29:26;;;;;;;12.03;10.70;;;22.10;99.90;;;;;;5050476;28;20539;-66
2022/06/21 05:32:00;;;;;;;12.33;11.03;;;22.20;99.90;;;;;;5050382;28;20535;-67
2022/06/21 05:34:30;;;;;;;16.13;10.13;;;22.10;99.90;;;;;;5050442;28;20813;-66
2022/06/21 05:37:00;;;;;;;15.20;9.97;;;22.20;99.90;;;;;;5050509;28;20930;-66
2022/06/21 05:39:31;;;;;;;17.90;10.90;;;22.30;99.90;;;;;;5050389;28;20458;-66
2022/06/21 05:42:03;;;;;;;11.03;9.70;;;22.50;99.90;;;;;;5050377;28;20925;-66
2022/06/21 05:44:35;;;;;;;14.30;9.17;;;22.60;99.90;;;;;;5050369;28;20450;-67
2022/06/21 05:47:08;;;;;;;14.03;11.20;;;22.80;99.90;;;;;;5050127;28;20608;-65
2022/06/21 05:49:37;;;;;;;13.27;9.10;;;23.00;99.90;;;;;;5049616;28;20500;-67
2022/06/21 05:52:08;;;;;;;10.13;8.40;;;23.10;99.90;;;;;;5049682;28;20453;-67
2022/06/21 05:54:43;;;;;;;12.07;10.27;;;23.20;99.90;;;;;;5049981;28;20601;-67
2022/06/21 05:57:14;;;;;;;12.67;9.50;;;23.20;99.90;;;;;;5050001;28;20870;-68
2022/06/21 05:59:41;;;;;;;9.60;7.90;;;23.40;99.90;;;;;;5050021;28;20515;-67
2022/06/21 06:02:15;;;;;;;11.83;7.50;;;23.50;99.90;;;;;;5050029;28;20487;-66
2022/06/21 06:04:47;;;;;;;14.17;8.27;;;23.50;99.90;;;;;;5049720;28;20519;-66
2022/06/21 06:07:17;;;;;;;10.40;8.13;;;23.50;99.90;;;;;;5049574;28;20505;-66
2022/06/21 06:09:48;;;;;;;11.83;8.20;;;23.60;99.90;;;;;;5049992;28;20912;-66
2022/06/21 06:12:20;;;;;;;11.20;7.63;;;23.80;99.90;;;;;;5050243;28;20500;-67
2022/06/21 06:14:51;;;;;;;9.40;8.43;;;23.90;99.90;;;;;;5049814;28;21052;-67
2022/06/21 06:17:42;;;;;;;9.27;7.73;;;24.00;99.90;;;;;;5049718;28;20496;-66
2022/06/21 06:20:18;;;;;;;10.33;8.47;;;24.10;99.90;;;;;;5049460;28;20560;-66
2022/06/21 06:22:52;;;;;;;11.80;8.70;;;24.30;99.90;;;;;;5049763;28;20445;-67
2022/06/21 06:25:24;;;;;;;10.40;8.50;;;24.40;99.90;;;;;;5049622;28;20536;-67
2022/06/21 06:27:59;;;;;;;9.07;8.03;;;24.50;99.90;;;;;;5048318;28;20563;-67
2022/06/21 06:30:32;;;;;;;11.23;8.10;;;24.70;99.90;;;;;;5049361;28;20499;-67
2022/06/21 06:33:13;;;;;;;12.90;9.90;;;24.80;99.90;;;;;;5049627;28;20461;-67
2022/06/21 06:35:41;;;;;;;12.60;9.00;;;24.90;99.90;;;;;;5049557;28;20449;-68
2022/06/21 06:38:13;;;;;;;11.60;9.97;;;25.00;99.90;;;;;;5049350;28;20556;-67
2022/06/21 06:40:46;;;;;;;11.37;9.10;;;24.90;99.90;;;;;;5049432;28;20463;-67
2022/06/21 06:43:18;;;;;;;14.07;12.17;;;25.20;99.90;;;;;;5049332;28;20450;-66
2022/06/21 06:45:45;;;;;;;15.17;12.27;;;25.30;99.90;;;;;;5049369;28;20966;-66
2022/06/21 06:48:22;;;;;;;11.27;10.17;;;25.40;99.90;;;;;;5049180;28;20535;-73
2022/06/21 06:50:54;;;;;;;12.73;9.80;;;25.50;99.90;;;;;;5049041;28;20453;-65
2022/06/21 06:53:29;;;;;;;12.87;9.27;;;25.50;99.90;;;;;;5049126;28;20581;-68
2022/06/21 06:56:01;;;;;;;12.00;10.70;;;25.60;99.90;;;;;;5048750;28;20472;-67
2022/06/21 06:58:34;;;;;;;12.87;11.47;;;26.00;99.90;;;;;;5049226;28;20473;-67
2022/06/21 07:01:05;;;;;;;17.83;11.90;;;26.20;99.90;;;;;;5049205;28;20458;-67
2022/06/21 07:03:38;;;;;;;11.03;9.90;;;26.30;99.90;;;;;;5049218;28;20450;-71
2022/06/21 07:06:14;;;;;;;16.37;9.37;;;26.50;99.90;;;;;;5049307;28;20850;-70
2022/06/21 07:08:46;;;;;;;15.90;12.60;;;26.50;99.90;;;;;;5049243;28;20972;-71
2022/06/21 07:11:21;;;;;;;10.47;7.97;;;26.60;99.90;;;;;;5049101;28;20454;-68
2022/06/21 07:13:48;;;;;;;10.97;7.90;;;26.80;99.90;;;;;;5049069;28;20453;-67
2022/06/21 07:16:20;;;;;;;10.83;7.40;;;27.00;99.90;;;;;;5048400;28;20476;-67
2022/06/21 07:18:51;;;;;;;13.40;7.73;;;27.10;99.90;;;;;;5049247;28;20453;-70
2022/06/21 07:21:19;;;;;;;14.17;9.83;;;27.10;99.90;;;;;;5049216;28;20877;-70
2022/06/21 07:23:47;;;;;;;11.90;10.00;;;27.20;99.90;;;;;;5048983;28;20508;-70
2022/06/21 07:26:20;;;;;;;8.90;7.73;;;27.40;99.90;;;;;;5048826;28;20454;-70
2022/06/21 07:28:52;;;;;;;10.10;8.93;;;27.50;99.90;;;;;;5047599;28;20500;-69
2022/06/21 07:31:26;;;;;;;13.40;9.13;;;27.70;99.90;;;;;;5049098;28;20458;-69
2022/06/21 07:34:02;;;;;;;12.90;9.37;;;27.80;99.90;;;;;;5049235;28;20454;-69
2022/06/21 07:36:34;;;;;;;13.33;7.90;;;27.80;99.90;;;;;;5048516;28;20993;-69
2022/06/21 07:39:07;;;;;;;10.97;7.53;;;27.70;99.90;;;;;;5050307;28;20926;-71
2022/06/21 07:41:41;;;;;;;11.63;7.80;;;27.90;99.90;;;;;;5052521;28;20522;-75
2022/06/21 07:44:12;;;;;;;17.13;7.80;;;28.10;99.90;;;;;;5052847;28;20453;-68
2022/06/21 07:46:43;;;;;;;10.37;8.23;;;28.30;99.90;;;;;;5052561;28;20489;-69
2022/06/21 07:49:20;;;;;;;11.47;9.00;;;28.40;99.90;;;;;;5052259;28;20454;-69
2022/06/21 07:51:52;;;;;;;11.57;7.60;;;28.40;99.90;;;;;;5052454;28;20961;-68
2022/06/21 07:54:23;;;;;;;12.80;9.60;;;28.70;99.90;;;;;;5052240;28;20982;-73
2022/06/21 07:56:53;;;;;;;9.93;6.70;;;28.90;99.90;;;;;;5052157;28;20469;-67
2022/06/21 07:59:24;;;;;;;7.07;5.90;;;28.80;99.90;;;;;;5052447;28;20515;-67
2022/06/21 08:07:34;;;;;;;11.03;6.80;;;28.80;99.90;;;;;;5052073;28;20638;-67
2022/06/21 08:10:08;;;;;;;8.57;6.60;;;28.90;99.80;;;;;;5052165;28;20453;-67
2022/06/21 08:12:35;;;;;;;8.43;5.57;;;29.00;99.40;;;;;;5052000;28;20500;-68
2022/06/21 08:15:03;;;;;;;9.03;5.90;;;28.90;99.80;;;;;;5052198;28;20445;-67
2022/06/21 08:17:38;;;;;;;9.40;5.93;;;28.80;99.60;;;;;;5052072;28;20784;-67
2022/06/21 08:20:13;;;;;;;8.90;6.30;;;28.90;99.70;;;;;;5052129;28;20461;-67
2022/06/21 08:22:44;;;;;;;8.20;6.80;;;29.10;99.50;;;;;;5051636;28;20996;-66
2022/06/21 08:25:23;;;;;;;10.50;6.87;;;29.00;99.10;;;;;;5051917;28;20454;-67
2022/06/21 08:27:57;;;;;;;10.87;7.53;;;29.00;99.30;;;;;;5051520;28;20815;-67
2022/06/21 08:30:30;;;;;;;9.90;7.70;;;29.10;99.50;;;;;;5051740;28;20926;-68
2022/06/21 08:33:04;;;;;;;13.20;7.17;;;29.10;99.60;;;;;;5051660;28;20468;-70
2022/06/21 08:35:35;;;;;;;12.63;8.10;;;29.20;99.70;;;;;;5051531;28;20503;-67
2022/06/21 08:38:09;;;;;;;10.23;8.30;;;29.10;99.20;;;;;;5051424;28;20470;-73
2022/06/21 08:41:01;;;;;;;11.27;9.10;;;29.30;99.50;;;;;;5051366;28;20457;-71
2022/06/21 08:44:11;;;;;;;7.80;7.00;;;29.10;99.10;;;;;;5051376;28;20442;-75
2022/06/21 08:47:13;;;;;;;13.90;9.00;;;29.20;99.90;;;;;;4989044;28;20468;-76
2022/06/21 08:50:03;;;;;;;13.30;9.13;;;28.80;99.60;;;;;;4988725;28;20464;-70
2022/06/21 08:52:59;;;;;;;9.93;8.33;;;28.80;99.90;;;;;;5044886;28;20494;-75
2022/06/21 08:55:38;;;;;;;10.03;8.03;;;29.00;99.90;;;;;;5051360;28;21000;-73
2022/06/21 08:58:24;;;;;;;11.37;8.17;;;28.90;99.90;;;;;;5050672;28;20557;-72
2022/06/21 09:01:00;;;;;;;10.17;9.00;;;28.80;99.90;;;;;;5051032;28;20458;-68
2022/06/21 09:03:40;;;;;;;15.20;8.60;;;28.70;99.90;;;;;;5051080;28;21005;-70
2022/06/21 09:06:17;;;;;;;12.17;8.90;;;28.80;99.90;;;;;;5051132;28;20531;-70
2022/06/21 09:09:08;;;;;;;13.90;9.00;;;28.80;99.90;;;;;;5050710;28;20492;-67
2022/06/21 09:11:44;;;;;;;12.63;9.37;;;29.00;99.90;;;;;;5050869;28;20457;-69
2022/06/21 09:14:39;;;;;;;13.57;9.17;;;29.20;99.90;;;;;;5050893;28;20441;-69
2022/06/21 09:17:17;;;;;;;10.83;9.57;;;29.20;99.90;;;;;;5050457;28;20469;-74
2022/06/21 09:19:58;;;;;;;12.60;9.37;;;29.30;99.90;;;;;;5050744;28;20968;-69
2022/06/21 09:22:33;;;;;;;10.17;9.07;;;29.00;99.90;;;;;;5050618;28;20495;-69
2022/06/21 09:25:09;;;;;;;18.67;10.77;;;29.30;99.90;;;;;;5050701;28;20464;-69
2022/06/21 09:27:42;;;;;;;14.47;10.23;;;29.30;99.90;;;;;;5050515;28;20508;-68
2022/06/21 09:30:13;;;;;;;10.23;9.13;;;29.40;99.90;;;;;;5050945;28;20751;-69
2022/06/21 09:32:54;;;;;;;12.10;10.37;;;29.50;99.90;;;;;;5050597;28;20820;-70
2022/06/21 09:35:34;;;;;;;11.53;10.40;;;29.50;99.90;;;;;;5050380;28;20458;-70
2022/06/21 09:38:17;;;;;;;13.97;9.70;;;29.30;99.90;;;;;;5050548;28;20469;-69
2022/06/21 09:40:53;;;;;;;9.80;8.90;;;29.20;99.90;;;;;;5050275;28;20458;-69
2022/06/21 09:43:30;;;;;;;10.23;9.23;;;29.20;99.90;;;;;;5050404;28;20449;-69
2022/06/21 09:46:15;;;;;;;11.50;10.40;;;29.30;99.90;;;;;;5050478;28;20807;-68
2022/06/21 09:48:52;;;;;;;12.13;10.10;;;29.20;99.90;;;;;;5050148;28;20490;-69
2022/06/21 09:51:25;;;;;;;12.10;9.67;;;29.40;99.90;;;;;;5050180;28;20453;-68
2022/06/21 09:54:04;;;;;;;11.03;9.87;;;29.80;99.90;;;;;;5049490;28;20547;-69
2022/06/21 09:56:42;;;;;;;10.50;9.43;;;30.10;99.90;;;;;;5049882;28;20474;-68
2022/06/21 09:59:16;;;;;;;11.87;9.50;;;30.00;99.90;;;;;;5050170;28;20544;-68
2022/06/21 10:01:50;;;;;;;12.33;10.73;;;30.00;99.90;;;;;;5049792;28;20848;-68
2022/06/21 10:04:29;;;;;;;17.93;11.00;;;30.00;99.90;;;;;;5049944;28;20508;-68
2022/06/21 10:07:08;;;;;;;10.53;9.53;;;30.10;99.90;;;;;;5049531;28;20477;-68
2022/06/21 10:09:50;;;;;;;11.60;10.40;;;30.20;99.90;;;;;;5049775;28;20863;-69
2022/06/21 10:12:29;;;;;;;11.00;10.00;;;30.00;99.90;;;;;;5050007;28;21025;-69
2022/06/21 10:15:26;;;;;;;11.80;10.57;;;30.10;99.90;;;;;;5049837;28;20470;-68
2022/06/21 10:18:18;;;;;;;13.00;11.70;;;30.30;99.90;;;;;;5049391;28;20477;-70
2022/06/21 10:20:57;;;;;;;11.00;10.00;;;30.20;99.00;;;;;;5049715;28;20458;-69
2022/06/21 10:23:48;;;;;;;11.90;10.80;;;30.00;99.30;;;;;;5049398;28;20516;-69
2022/06/21 10:26:44;;;;;;;11.40;9.87;;;30.10;99.20;;;;;;5049627;28;20947;-69
2022/06/21 10:29:45;;;;;;;10.90;9.53;;;30.30;99.60;;;;;;5049779;28;20497;-70
2022/06/21 10:32:30;;;;;;;11.20;9.03;;;30.60;99.10;;;;;;5049555;28;20457;-68
2022/06/21 10:35:13;;;;;;;10.37;9.37;;;30.80;98.00;;;;;;5049798;28;20876;-69
2022/06/21 10:37:52;;;;;;;10.37;9.27;;;30.80;97.50;;;;;;5049715;28;20466;-69
2022/06/21 10:40:35;;;;;;;10.50;8.37;;;30.90;97.90;;;;;;5049309;28;20788;-70
2022/06/21 10:43:34;;;;;;;13.63;9.10;;;31.10;97.70;;;;;;5049518;28;20520;-70
2022/06/21 10:46:09;;;;;;;9.93;8.47;;;31.30;98.80;;;;;;5038798;28;20466;-69
2022/06/21 10:49:15;;;;;;;9.97;8.87;;;31.30;97.00;;;;;;5048894;28;20482;-72
2022/06/21 10:52:04;;;;;;;10.27;8.53;;;31.10;97.10;;;;;;5039006;28;20465;-69
2022/06/21 10:54:44;;;;;;;9.93;9.03;;;31.30;97.20;;;;;;5048915;28;20485;-68
2022/06/21 10:57:18;;;;;;;10.27;8.83;;;31.20;97.00;;;;;;5049072;28;20830;-73
2022/06/21 11:03:16;;;;;;;11.47;8.97;;;31.70;96.70;;;;;;5049339;28;20934;-70
2022/06/21 11:05:54;;;;;;;10.67;8.97;;;31.60;95.70;;;;;;5044054;28;20469;-70
2022/06/21 11:08:34;;;;;;;10.50;9.20;;;31.80;95.80;;;;;;5049370;28;20509;-70
2022/06/21 11:11:14;;;;;;;10.20;8.90;;;32.00;95.70;;;;;;5049298;28;20457;-70
2022/06/21 11:13:51;;;;;;;10.83;9.70;;;32.10;96.00;;;;;;5050424;28;20506;-70
2022/06/21 11:16:23;;;;;;;13.63;9.17;;;32.10;95.90;;;;;;5053344;28;20453;-69
2022/06/21 11:19:00;;;;;;;10.57;9.30;;;32.20;95.10;;;;;;5053344;28;20454;-71
2022/06/21 11:21:53;;;;;;;11.30;8.87;;;32.50;96.40;;;;;;5053336;28;20461;-72
2022/06/21 11:24:31;;;;;;;10.70;9.60;;;32.80;94.90;;;;;;5052976;28;20545;-71
2022/06/21 11:27:10;;;;;;;10.33;9.23;;;32.90;95.40;;;;;;5052568;28;20466;-78
2022/06/21 11:29:42;;;;;;;13.50;9.43;;;33.00;94.90;;;;;;5053082;28;20551;-68
2022/06/21 11:32:18;;;;;;;13.70;9.80;;;32.80;94.10;;;;;;5052675;28;20985;-69
2022/06/21 11:34:57;;;;;;;10.17;9.23;;;32.50;94.50;;;;;;5052679;28;20453;-72
2022/06/21 11:37:41;;;;;;;13.30;9.83;;;32.20;94.60;;;;;;5052549;28;20481;-70
2022/06/21 11:40:34;;;;;;;10.90;9.80;;;31.90;95.20;;;;;;5052746;28;20454;-69
2022/06/21 11:43:03;;;;;;;11.30;10.10;;;32.00;95.30;;;;;;5052689;28;20457;-69
2022/06/21 11:45:46;;;;;;;12.60;9.90;;;31.90;95.00;;;;;;5052703;28;20446;-69
2022/06/21 11:48:53;;;;;;;12.30;10.60;;;32.00;93.90;;;;;;5052303;28;20858;-68
2022/06/21 11:51:43;;;;;;;12.17;10.20;;;32.00;93.50;;;;;;4990302;28;21016;-68
2022/06/21 11:54:15;;;;;;;12.40;10.33;;;32.40;94.20;;;;;;5051249;28;20578;-67
2022/06/21 11:56:49;;;;;;;10.60;9.50;;;32.50;93.80;;;;;;5052311;28;20523;-70
2022/06/21 11:59:23;;;;;;;12.20;11.10;;;32.60;93.70;;;;;;5052044;28;20499;-68
2022/06/21 12:01:57;;;;;;;15.03;10.23;;;32.80;92.70;;;;;;5052067;28;20933;-68
2022/06/21 12:04:37;;;;;;;11.93;9.93;;;32.80;93.30;;;;;;5051979;28;20450;-68
2022/06/21 12:07:10;;;;;;;9.70;8.43;;;33.20;93.80;;;;;;5052194;28;20827;-69
2022/06/21 12:09:43;;;;;;;10.60;9.60;;;33.60;93.60;;;;;;5052088;28;20509;-68
2022/06/21 12:12:26;;;;;;;11.63;10.07;;;33.70;91.80;;;;;;5052188;28;20461;-71
2022/06/21 12:15:07;;;;;;;12.50;11.23;;;33.40;92.00;;;;;;5052086;28;20454;-69
2022/06/21 12:17:45;;;;;;;10.60;9.53;;;32.90;91.80;;;;;;5051938;28;20567;-68
2022/06/21 12:20:18;;;;;;;10.90;9.80;;;33.10;92.30;;;;;;5052091;28;20458;-69
2022/06/21 12:22:51;;;;;;;10.33;9.43;;;33.40;91.90;;;;;;5051669;28;20464;-69
2022/06/21 12:25:21;;;;;;;11.20;9.40;;;33.60;91.80;;;;;;5051488;28;20824;-69
2022/06/21 12:27:48;;;;;;;10.10;9.10;;;33.60;90.70;;;;;;5051544;28;20477;-69
2022/06/21 12:30:23;;;;;;;14.13;10.33;;;33.60;91.50;;;;;;5051921;28;20971;-69
2022/06/21 12:32:56;;;;;;;10.37;9.27;;;33.10;91.70;;;;;;5052208;28;20453;-69
2022/06/21 12:35:43;;;;;;;11.37;9.70;;;33.40;91.40;;;;;;5052035;28;20477;-70
2022/06/21 12:38:14;;;;;;;11.70;8.83;;;33.60;91.20;;;;;;5051786;28;20596;-69
2022/06/21 12:40:49;;;;;;;9.93;8.93;;;33.20;89.80;;;;;;5051450;28;20462;-69
2022/06/21 12:43:29;;;;;;;10.43;9.43;;;33.00;90.80;;;;;;5051574;28;20454;-69
2022/06/21 12:46:06;;;;;;;10.27;9.13;;;33.10;90.70;;;;;;5051291;28;20473;-69
2022/06/21 12:49:02;;;;;;;10.67;9.03;;;33.00;90.00;;;;;;5051441;28;20501;-68
2022/06/21 12:51:37;;;;;;;13.23;8.70;;;33.10;90.90;;;;;;5048670;28;20458;-69
2022/06/21 12:54:36;;;;;;;9.70;8.70;;;33.50;90.30;;;;;;5051096;28;20491;-68
2022/06/21 12:57:21;;;;;;;11.70;8.50;;;33.90;90.40;;;;;;5048225;28;20515;-69
2022/06/21 13:00:10;;;;;;;10.93;9.30;;;34.10;87.90;;;;;;5051031;28;20453;-69
2022/06/21 13:03:13;;;;;;;10.23;9.33;;;34.40;87.20;;;;;;5051454;28;20770;-70
2022/06/21 13:05:50;;;;;;;12.00;9.60;;;34.50;84.40;;;;;;5051216;28;20984;-70
2022/06/21 13:09:11;;;;;;;11.03;9.87;;;34.30;85.30;;;;;;5050707;28;20543;-72
2022/06/21 13:11:52;;;;;;;9.43;8.53;;;33.70;85.80;;;;;;5051463;28;20442;-71
2022/06/21 13:14:59;;;;;;;10.23;8.67;;;33.80;87.00;;;;;;5050767;28;20882;-73
2022/06/21 13:17:39;;;;;;;10.10;8.83;;;34.10;85.40;;;;;;5050843;28;20911;-67
2022/06/21 13:20:16;;;;;;;10.07;9.20;;;34.50;85.50;;;;;;5050968;28;20849;-67
2022/06/21 13:22:55;;;;;;;10.47;9.07;;;34.70;85.60;;;;;;5050634;28;20862;-67
2022/06/21 13:25:45;;;;;;;11.40;10.20;;;35.00;84.00;;;;;;5050790;28;20457;-68
2022/06/21 13:28:34;;;;;;;10.73;8.67;;;35.00;82.20;;;;;;5050826;28;20912;-67
2022/06/21 13:31:10;;;;;;;10.97;9.90;;;35.00;81.60;;;;;;5050502;28;20456;-67
2022/06/21 13:34:00;;;;;;;10.53;8.70;;;34.70;80.60;;;;;;5050521;28;20449;-70